createdAt,value
2018-04-25T00:00:16.006Z,82.8
2018-04-25T00:05:05.311Z,82.9
2018-04-25T00:10:10.693Z,83.6
2018-04-25T00:15:10.170Z,83.7
2018-04-25T00:20:07.684Z,83.8
2018-04-25T00:25:05.774Z,84.1
2018-04-25T00:30:03.222Z,84
2018-04-25T00:35:05.174Z,84.1
2018-04-25T00:40:05.563Z,84
2018-04-25T00:45:08.479Z,84.2
2018-04-25T00:50:15.964Z,84.7
2018-04-25T00:55:02.676Z,59.1
2018-04-25T01:00:08.476Z,85
2018-04-25T01:05:15.486Z,84.7
2018-04-25T01:10:18.550Z,84.9
2018-04-25T01:15:17.967Z,85.2
2018-04-25T01:20:13.575Z,85.4
2018-04-25T01:30:08.665Z,87
2018-04-25T01:35:07.847Z,86.9
2018-04-25T01:40:08.121Z,87.2
2018-04-25T01:50:16.091Z,87.6
2018-04-25T01:55:05.843Z,87.3
2018-04-25T02:00:11.174Z,87.6
2018-04-25T02:05:33.607Z,87.8
2018-04-25T02:10:33.200Z,87.7
2018-04-25T02:20:18.656Z,88.2
2018-04-25T02:25:03.157Z,88.2
2018-04-25T02:30:05.402Z,88.4
2018-04-25T02:35:08.607Z,88.5
2018-04-25T02:45:33.548Z,88.6
2018-04-25T02:50:15.949Z,88.8
2018-04-25T02:55:10.624Z,88.6
2018-04-25T03:00:26.106Z,89.2
2018-04-25T03:15:10.811Z,89.2
2018-04-25T03:20:11.196Z,89.5
2018-04-25T03:25:13.475Z,89.7
2018-04-25T03:30:13.269Z,90
2018-04-25T03:35:07.953Z,89.8
2018-04-25T03:40:03.080Z,90
2018-04-25T03:45:30.583Z,89.9
2018-04-25T03:50:18.469Z,90
2018-04-25T03:55:03.049Z,90
2018-04-25T04:00:05.234Z,89.7
2018-04-25T04:05:23.794Z,89.5
2018-04-25T04:10:10.634Z,89.2
2018-04-25T04:15:16.344Z,89.1
2018-04-25T04:20:05.729Z,88.6
2018-04-25T04:25:20.588Z,88.6
2018-04-25T04:35:05.282Z,87.2
2018-04-25T04:40:18.625Z,85.4
2018-04-25T04:45:13.274Z,84.8
2018-04-25T04:50:05.494Z,83.5
2018-04-25T04:55:31.460Z,83.6
2018-04-25T05:05:06.147Z,81.8
2018-04-25T05:10:38.700Z,81.1
2018-04-25T05:15:03.378Z,81.1
2018-04-25T05:20:05.646Z,79
2018-04-25T05:25:25.640Z,78.8
2018-04-25T05:30:18.534Z,78.9
2018-04-25T05:35:03.017Z,78.9
2018-04-25T05:40:05.762Z,80
2018-04-25T05:45:15.573Z,80.3
2018-04-25T05:55:07.733Z,80
2018-04-25T06:00:03.412Z,80
2018-04-25T06:05:03.105Z,80
2018-04-25T06:10:03.278Z,79.2
2018-04-25T06:20:08.701Z,77.7
2018-04-25T06:25:03.484Z,77.7
2018-04-25T06:30:15.738Z,75.9
2018-04-25T06:35:02.777Z,75.9
2018-04-25T06:40:23.142Z,75.2
2018-04-25T06:50:03.072Z,74.5
2018-04-25T06:55:05.397Z,75.4
2018-04-25T07:00:05.634Z,75.4
2018-04-25T07:10:12.852Z,74.3
2018-04-25T07:15:03.576Z,74.3
2018-04-25T07:25:07.854Z,74.1
2018-04-25T07:30:06.096Z,73.3
2018-04-25T07:35:13.373Z,73
2018-04-25T07:40:06.057Z,72.7
2018-04-25T07:50:03.655Z,72.1
2018-04-25T07:55:26.333Z,71.1
2018-04-25T08:00:10.649Z,70.5
2018-04-25T08:05:17.939Z,69.1
2018-04-25T08:10:28.360Z,67.9
2018-04-25T08:15:33.623Z,67.9
2018-04-25T08:20:16.088Z,67.3
2018-04-25T08:25:25.996Z,66.7
2018-04-25T08:30:34.078Z,66.2
2018-04-25T08:35:15.486Z,65.8
2018-04-25T08:40:06.176Z,65.4
2018-04-25T08:45:06.046Z,64
2018-04-25T08:50:05.382Z,63.6
2018-04-25T08:55:06.201Z,63.6
2018-04-25T09:00:13.103Z,64
2018-04-25T09:05:05.209Z,64.7
2018-04-25T09:10:13.515Z,63.6
2018-04-25T09:15:03.104Z,63.6
2018-04-25T09:25:06.058Z,59
2018-04-25T09:30:05.303Z,59.2
2018-04-25T09:35:36.377Z,56.4
2018-04-25T09:40:08.606Z,57.6
2018-04-25T09:45:03.297Z,57.7
2018-04-25T09:50:33.479Z,56.9
2018-04-25T10:00:02.751Z,57.3
2018-04-25T10:05:21.267Z,57.1
2018-04-25T10:10:33.893Z,57
2018-04-25T10:15:28.938Z,57.2
2018-04-25T10:20:07.762Z,57.4
2018-04-25T10:25:16.123Z,57.2
2018-04-25T10:30:02.820Z,57.1
2018-04-25T10:35:13.687Z,53.8
2018-04-25T10:40:07.936Z,54.2
2018-04-25T10:45:10.463Z,54.8
2018-04-25T10:50:03.218Z,54.9
2018-04-25T10:55:08.033Z,59.7
2018-04-25T11:00:02.775Z,59.7
2018-04-25T11:05:02.703Z,67.6
2018-04-25T11:10:05.564Z,88.9
2018-04-25T11:15:07.800Z,90.2
2018-04-25T11:20:08.655Z,90
2018-04-25T11:25:08.452Z,90.9
2018-04-25T11:30:35.983Z,90.7
2018-04-25T11:35:07.708Z,89.8
2018-04-25T11:40:10.556Z,87.5
2018-04-25T12:00:05.484Z,79.4
2018-04-25T12:05:22.971Z,73.6
2018-04-25T12:10:15.819Z,75.3
2018-04-25T12:15:05.537Z,68.3
2018-04-25T12:20:03.363Z,68.3
2018-04-25T12:25:18.230Z,66
2018-04-25T12:30:10.587Z,65
2018-04-25T12:35:05.208Z,63.6
2018-04-25T12:40:10.972Z,62.8
2018-04-25T12:45:03.078Z,62.8
2018-04-25T12:50:05.313Z,69.5
2018-04-25T12:55:11.102Z,67
2018-04-25T13:00:35.702Z,62.6
2018-04-25T13:05:21.078Z,58.1
2018-04-25T13:10:23.491Z,56.3
2018-04-25T13:15:05.616Z,55
2018-04-25T13:20:11.058Z,51.6
2018-04-25T13:25:03.150Z,51.7
2018-04-25T13:30:18.033Z,47
2018-04-25T13:35:03.604Z,47.2
2018-04-25T13:40:02.821Z,46.4
2018-04-25T13:45:03.491Z,45.9
2018-04-25T13:50:18.422Z,46.9
2018-04-25T13:55:03.007Z,46.8
2018-04-25T14:00:05.235Z,41
2018-04-25T14:05:11.035Z,39.2
2018-04-25T14:10:21.058Z,38.8
2018-04-25T14:15:02.944Z,38.9
2018-04-25T14:20:07.824Z,42.5
2018-04-25T14:25:03.536Z,42.6
2018-04-25T14:30:18.427Z,46.3
2018-04-25T14:35:08.095Z,45.5
2018-04-25T14:40:18.540Z,46.9
2018-04-25T14:45:15.740Z,48.6
2018-04-25T14:50:21.275Z,43.4
2018-04-25T14:55:15.877Z,43.3
2018-04-25T15:00:08.751Z,39.8
2018-04-25T15:05:03.395Z,39.8
2018-04-25T15:10:11.225Z,37.1
2018-04-25T15:15:26.115Z,38.4
2018-04-25T15:20:15.531Z,42.7
2018-04-25T15:30:31.028Z,40.8
2018-04-25T15:35:07.922Z,40.5
2018-04-25T15:40:10.720Z,41.8
2018-04-25T15:45:18.027Z,43.2
2018-04-25T15:50:02.717Z,43.1
2018-04-25T15:55:06.031Z,17.8
2018-04-25T16:00:07.829Z,43.4
2018-04-25T16:05:31.309Z,18.1
2018-04-25T16:10:11.081Z,44.9
2018-04-25T16:15:12.801Z,45.8
2018-04-25T16:20:03.542Z,45.9
2018-04-25T16:25:08.592Z,45.7
2018-04-25T16:30:13.383Z,47.6
2018-04-25T16:35:33.371Z,48.8
2018-04-25T16:45:03.019Z,50.3
2018-04-25T16:50:22.904Z,51.1
2018-04-25T16:55:28.751Z,50
2018-04-25T17:00:08.635Z,50.2
2018-04-25T17:05:23.491Z,49.6
2018-04-25T17:10:06.181Z,50.9
2018-04-25T17:15:21.029Z,51.8
2018-04-25T17:25:28.558Z,53.6
2018-04-25T17:30:05.855Z,54.2
2018-04-25T17:35:25.779Z,54.5
2018-04-25T17:40:33.314Z,54.4
2018-04-25T17:45:03.022Z,54.4
2018-04-25T17:50:05.258Z,55.4
2018-04-25T18:00:15.511Z,55.3
2018-04-25T18:05:08.581Z,56
2018-04-25T18:10:02.738Z,56
2018-04-25T18:20:08.006Z,57.6
2018-04-25T18:25:10.304Z,57.9
2018-04-25T18:30:15.905Z,58.6
2018-04-25T18:35:08.285Z,59.3
2018-04-25T18:40:03.465Z,59.3
2018-04-25T18:55:28.476Z,61.8
2018-04-25T19:00:05.716Z,62.4
2018-04-25T19:05:20.689Z,62.9
2018-04-25T19:15:21.083Z,64
2018-04-25T19:25:08.694Z,63.5
2018-04-25T19:30:05.901Z,63.6
2018-04-25T19:35:03.277Z,63.6
2018-04-25T19:40:05.322Z,64.1
2018-04-25T19:45:20.360Z,64.6
2018-04-25T19:50:23.264Z,65.4
2018-04-25T19:55:05.361Z,66.2
2018-04-25T20:00:10.703Z,67
2018-04-25T20:05:20.558Z,67.5
2018-04-25T20:10:05.366Z,67.9
2018-04-25T20:15:08.532Z,68.4
2018-04-25T20:20:06.088Z,68.7
2018-04-25T20:25:10.591Z,68.4
2018-04-25T20:30:11.023Z,68.6
2018-04-25T20:35:25.753Z,68.9
2018-04-25T20:40:38.454Z,69.2
2018-04-25T20:45:38.743Z,69.5
2018-04-25T20:50:08.503Z,70.2
2018-04-25T20:55:03.152Z,70.2
2018-04-25T21:00:02.858Z,70.8
2018-04-25T21:05:02.758Z,71.2
2018-04-25T21:15:10.940Z,71.2
2018-04-25T21:20:20.420Z,71.5
2018-04-25T21:25:03.428Z,71.5
2018-04-25T21:30:36.064Z,71.9
2018-04-25T21:35:20.392Z,72.3
2018-04-25T21:40:03.518Z,72.3
2018-04-25T21:45:05.714Z,72.9
2018-04-25T21:50:08.451Z,74.2
2018-04-25T21:55:08.223Z,74.7
2018-04-25T22:00:02.909Z,74.7
2018-04-25T22:05:18.764Z,75.6
2018-04-25T22:10:02.984Z,75.6
2018-04-25T22:15:16.284Z,76.5
2018-04-25T22:20:20.653Z,76.4
2018-04-25T22:25:07.712Z,76.5
2018-04-25T22:30:13.501Z,76.3
2018-04-25T22:35:05.653Z,76.5
2018-04-25T22:40:05.370Z,76.6
2018-04-25T22:45:03.433Z,76.6
2018-04-25T22:50:05.632Z,76.8
2018-04-25T22:55:05.417Z,77.1
2018-04-25T23:00:13.231Z,77.6
2018-04-25T23:05:10.445Z,77.7
2018-04-25T23:10:12.906Z,77.7
2018-04-25T23:15:36.334Z,77.7
2018-04-25T23:20:08.152Z,76.6
2018-04-25T23:25:05.545Z,74.8
2018-04-25T23:30:05.751Z,73.5
2018-04-25T23:35:20.643Z,72.7
2018-04-25T23:40:15.517Z,72.2
2018-04-25T23:45:38.835Z,72.3
2018-04-25T23:50:13.612Z,71.4
2018-04-25T23:55:03.145Z,71.5
